Time;durP1;ratioP1;P1;durP2;ratioP2;P2;SDS_P1;SDS_P2;PMS_P1;PMS_P2;Temp;Humidity;BMP_temperature;BMP_pressure;BME280_temperature;BME280_humidity;BME280_pressure;Samples;Min_cycle;Max_cycle;Signal;HPM_P1;HPM_P2
2021/11/18 00:00:35;;;;;;;0.63;0.50;;;26.80;83.70;;;;;;5039198;28;20071;-73
2021/11/18 00:03:03;;;;;;;1.75;0.50;;;26.80;82.30;;;;;;5040962;28;20021;-74
2021/11/18 00:05:32;;;;;;;2.35;1.13;;;26.70;84.10;;;;;;5043726;28;20357;-74
2021/11/18 00:08:00;;;;;;;1.67;0.47;;;26.70;83.10;;;;;;5048794;28;20044;-76
2021/11/18 00:10:33;;;;;;;4.05;0.90;;;26.60;83.40;;;;;;5046485;28;20561;-74
2021/11/18 00:13:03;;;;;;;5.47;0.65;;;26.80;84.90;;;;;;5048427;28;20115;-73
2021/11/18 00:15:32;;;;;;;3.08;0.50;;;27.20;82.90;;;;;;5040514;28;20037;-73
2021/11/18 00:18:05;;;;;;;2.90;0.60;;;27.30;83.30;;;;;;5040763;28;20025;-74
2021/11/18 00:20:37;;;;;;;2.65;1.05;;;27.30;83.80;;;;;;5035299;28;20021;-74
2021/11/18 00:23:04;;;;;;;3.08;0.40;;;27.30;82.50;;;;;;5045029;28;20023;-75
2021/11/18 00:25:32;;;;;;;2.17;0.40;;;27.90;83.40;;;;;;5039979;28;20047;-75
2021/11/18 00:28:00;;;;;;;2.40;0.60;;;28.00;81.50;;;;;;5040153;28;20084;-74
2021/11/18 00:30:28;;;;;;;1.88;1.00;;;28.30;80.50;;;;;;5038938;28;20077;-74
2021/11/18 00:32:56;;;;;;;2.28;0.75;;;28.40;79.30;;;;;;5043494;28;20041;-74
2021/11/18 00:35:28;;;;;;;3.08;0.60;;;28.30;79.70;;;;;;5036988;28;20416;-74
2021/11/18 00:37:57;;;;;;;1.65;0.60;;;28.20;79.00;;;;;;5037618;28;20063;-73
2021/11/18 00:40:28;;;;;;;2.78;0.50;;;27.90;76.20;;;;;;5035088;28;20476;-74
2021/11/18 00:42:55;;;;;;;1.20;0.40;;;27.80;78.70;;;;;;5042160;28;20033;-71
2021/11/18 00:45:25;;;;;;;0.93;0.50;;;28.00;77.00;;;;;;5041439;28;20029;-73
2021/11/18 00:47:54;;;;;;;3.30;0.50;;;28.00;75.00;;;;;;5042095;28;20021;-74
2021/11/18 00:50:26;;;;;;;2.58;0.47;;;28.10;74.60;;;;;;5041422;28;20503;-75
2021/11/18 00:52:53;;;;;;;1.35;0.40;;;28.00;75.40;;;;;;5039687;28;20389;-73
2021/11/18 00:55:22;;;;;;;1.73;0.40;;;28.10;74.90;;;;;;5042259;28;20119;-72
2021/11/18 00:57:49;;;;;;;2.80;0.38;;;28.00;74.40;;;;;;5039093;28;20108;-73
2021/11/18 01:00:21;;;;;;;2.05;0.50;;;28.10;75.10;;;;;;5038712;28;20740;-73
2021/11/18 01:02:48;;;;;;;2.17;0.77;;;28.30;73.80;;;;;;5039692;28;20029;-73
2021/11/18 01:05:16;;;;;;;1.73;0.32;;;28.10;72.10;;;;;;5030548;28;20504;-74
2021/11/18 01:07:44;;;;;;;2.78;1.10;;;28.00;72.90;;;;;;5036764;28;20040;-75
2021/11/18 01:10:16;;;;;;;0.98;0.50;;;28.10;72.20;;;;;;5039279;28;20044;-76
2021/11/18 01:12:45;;;;;;;2.33;0.47;;;28.10;73.10;;;;;;5035829;28;20091;-75
2021/11/18 01:15:16;;;;;;;2.42;0.47;;;28.30;73.60;;;;;;5039029;28;20032;-75
2021/11/18 01:17:45;;;;;;;1.92;0.68;;;28.60;74.00;;;;;;5041617;28;20155;-73
2021/11/18 01:20:13;;;;;;;1.60;0.40;;;28.60;73.10;;;;;;5041023;28;20033;-74
2021/11/18 01:22:42;;;;;;;1.05;0.38;;;28.80;73.30;;;;;;5031715;28;20028;-74
2021/11/18 01:25:12;;;;;;;0.52;0.30;;;28.70;70.30;;;;;;5046589;28;20460;-72
2021/11/18 01:27:39;;;;;;;1.48;0.25;;;28.60;71.10;;;;;;5045564;28;20068;-75
2021/11/18 01:30:14;;;;;;;3.60;0.77;;;28.80;68.70;;;;;;5050332;28;20045;-77
2021/11/18 01:32:42;;;;;;;4.22;0.63;;;28.80;66.70;;;;;;5041709;28;20492;-76
2021/11/18 01:35:10;;;;;;;1.48;0.43;;;28.70;67.90;;;;;;5045064;28;20487;-75
2021/11/18 01:37:38;;;;;;;0.55;0.30;;;29.00;67.90;;;;;;5045671;28;20033;-74
2021/11/18 01:40:11;;;;;;;1.95;0.50;;;29.40;66.70;;;;;;5034952;28;20034;-75
2021/11/18 01:42:38;;;;;;;1.83;0.30;;;29.30;67.50;;;;;;5038002;28;20036;-77
2021/11/18 01:45:08;;;;;;;1.20;0.43;;;29.10;67.40;;;;;;5045177;28;20108;-77
2021/11/18 01:47:36;;;;;;;1.55;0.40;;;28.90;65.10;;;;;;5043087;28;20503;-75
2021/11/18 01:50:04;;;;;;;1.42;0.20;;;28.70;65.10;;;;;;5041718;28;20029;-75
2021/11/18 01:52:33;;;;;;;3.50;0.70;;;29.10;68.10;;;;;;5040430;28;20056;-76
2021/11/18 01:55:01;;;;;;;2.35;0.70;;;29.20;65.90;;;;;;5052051;28;20064;-75
2021/11/18 01:57:32;;;;;;;1.00;0.32;;;29.60;64.70;;;;;;5046117;28;20056;-71
2021/11/18 02:00:00;;;;;;;5.40;1.17;;;29.80;65.60;;;;;;5039276;28;20085;-73
2021/11/18 02:02:29;;;;;;;1.83;0.43;;;30.10;64.90;;;;;;5042819;28;20033;-75
2021/11/18 02:05:10;;;;;;;2.00;0.40;;;30.10;63.60;;;;;;5044568;28;20021;-78
2021/11/18 02:07:42;;;;;;;2.00;0.38;;;30.00;62.10;;;;;;5048589;28;20025;-72
2021/11/18 02:10:12;;;;;;;1.73;0.45;;;30.40;61.80;;;;;;5047703;28;20495;-72
2021/11/18 02:12:40;;;;;;;1.23;0.40;;;30.80;62.60;;;;;;5037801;28;20045;-73
2021/11/18 02:15:35;;;;;;;5.22;0.70;;;30.70;60.80;;;;;;5048796;28;20034;-73
2021/11/18 02:18:11;;;;;;;1.65;0.30;;;30.60;60.40;;;;;;5046354;28;20103;-73
2021/11/18 02:20:39;;;;;;;0.52;0.35;;;30.60;59.40;;;;;;5048363;28;20061;-75
2021/11/18 02:23:22;;;;;;;3.08;0.55;;;30.70;58.50;;;;;;5051207;28;20443;-74
2021/11/18 02:25:52;;;;;;;2.22;0.45;;;30.80;58.00;;;;;;5045497;28;20025;-76
2021/11/18 02:28:22;;;;;;;1.48;0.52;;;30.90;59.50;;;;;;5046341;28;20090;-73
2021/11/18 02:30:51;;;;;;;2.20;0.43;;;31.40;57.90;;;;;;5039655;28;20508;-75
2021/11/18 02:33:19;;;;;;;1.50;0.80;;;31.70;60.20;;;;;;5044365;28;20041;-74
2021/11/18 02:35:48;;;;;;;1.50;0.30;;;31.90;60.90;;;;;;5038270;28;20033;-74
2021/11/18 02:38:17;;;;;;;2.80;0.52;;;32.00;59.40;;;;;;5043459;28;20029;-76
2021/11/18 02:40:46;;;;;;;1.00;0.32;;;32.00;57.60;;;;;;5045673;28;20039;-76
2021/11/18 02:43:17;;;;;;;3.67;0.77;;;32.00;60.10;;;;;;5043841;28;20091;-74
2021/11/18 02:45:49;;;;;;;1.33;0.38;;;31.90;57.90;;;;;;5040708;28;20033;-71
2021/11/18 02:48:19;;;;;;;4.50;0.95;;;31.60;59.50;;;;;;5043565;28;20107;-71
2021/11/18 02:50:51;;;;;;;2.75;0.85;;;31.30;59.90;;;;;;5040627;28;20392;-71
2021/11/18 02:53:20;;;;;;;3.40;0.50;;;31.00;59.10;;;;;;5042465;28;20041;-74
2021/11/18 02:55:49;;;;;;;1.00;0.40;;;31.00;62.50;;;;;;5045410;28;20090;-74
2021/11/18 02:58:18;;;;;;;2.58;1.02;;;31.30;59.10;;;;;;5045346;28;20036;-72
2021/11/18 03:00:48;;;;;;;0.60;0.38;;;31.30;57.20;;;;;;5046074;28;20121;-71
2021/11/18 03:03:16;;;;;;;4.28;0.75;;;31.10;58.00;;;;;;5048542;28;20067;-72
2021/11/18 03:05:45;;;;;;;0.82;0.68;;;31.10;59.10;;;;;;5042551;28;20385;-72
2021/11/18 03:08:12;;;;;;;1.08;0.52;;;31.20;59.30;;;;;;5039898;28;20025;-72
2021/11/18 03:10:40;;;;;;;2.92;0.50;;;31.10;58.10;;;;;;5037716;28;21561;-70
2021/11/18 03:13:08;;;;;;;2.58;0.30;;;31.00;57.70;;;;;;5045041;28;20481;-76
2021/11/18 03:15:36;;;;;;;1.48;0.30;;;31.10;58.50;;;;;;5042139;28;20447;-77
2021/11/18 03:18:03;;;;;;;1.30;0.50;;;31.50;59.10;;;;;;5043025;28;20036;-71
2021/11/18 03:20:32;;;;;;;0.82;0.50;;;32.00;57.00;;;;;;5043460;28;20029;-70
2021/11/18 03:23:00;;;;;;;1.02;0.40;;;31.90;55.50;;;;;;5049116;28;20021;-72
2021/11/18 03:25:32;;;;;;;1.98;0.45;;;32.00;58.50;;;;;;5046805;28;20044;-78
2021/11/18 03:28:00;;;;;;;2.95;0.73;;;31.70;56.50;;;;;;5046074;28;20045;-72
2021/11/18 03:30:35;;;;;;;4.88;0.52;;;31.60;57.00;;;;;;5039363;28;20129;-73
2021/11/18 03:33:10;;;;;;;0.75;0.30;;;31.50;56.40;;;;;;5041946;28;20040;-74
2021/11/18 03:35:38;;;;;;;1.05;0.30;;;31.50;57.60;;;;;;5042799;28;20040;-76
2021/11/18 03:38:07;;;;;;;2.70;0.40;;;32.00;58.10;;;;;;5043486;28;20060;-79
2021/11/18 03:40:35;;;;;;;0.90;0.90;;;32.40;56.40;;;;;;5038481;28;20400;-72
2021/11/18 03:43:03;;;;;;;1.17;0.40;;;32.50;55.40;;;;;;5042300;28;20174;-74
2021/11/18 03:45:32;;;;;;;1.52;0.25;;;32.80;56.00;;;;;;5044845;28;20033;-77
2021/11/18 03:47:59;;;;;;;1.05;0.40;;;32.60;55.40;;;;;;5041678;28;20033;-74
2021/11/18 03:50:28;;;;;;;0.70;0.30;;;32.40;55.40;;;;;;5034170;28;20384;-75
2021/11/18 03:52:55;;;;;;;0.90;0.40;;;31.90;56.10;;;;;;5034270;28;20120;-76
2021/11/18 03:55:23;;;;;;;1.52;0.32;;;31.80;55.70;;;;;;5050203;28;20020;-75
2021/11/18 03:57:53;;;;;;;2.53;0.85;;;31.70;55.80;;;;;;5044332;28;20028;-74
2021/11/18 04:00:28;;;;;;;1.65;0.30;;;32.10;55.00;;;;;;5041858;28;20141;-71
2021/11/18 04:02:57;;;;;;;2.08;0.80;;;32.50;55.70;;;;;;5042649;28;20040;-74
2021/11/18 04:05:25;;;;;;;1.75;0.70;;;33.00;57.40;;;;;;5041675;28;20121;-78
2021/11/18 04:07:53;;;;;;;2.83;1.02;;;32.90;53.40;;;;;;5047707;28;20053;-75
2021/11/18 04:10:24;;;;;;;0.93;0.30;;;32.60;53.90;;;;;;5042335;28;20045;-74
2021/11/18 04:12:52;;;;;;;1.17;0.35;;;32.40;53.50;;;;;;5037854;28;20405;-73
2021/11/18 04:15:22;;;;;;;2.40;0.30;;;32.30;54.90;;;;;;5037480;28;20140;-73
2021/11/18 04:17:50;;;;;;;1.00;0.45;;;32.10;54.70;;;;;;5043639;28;20059;-74
2021/11/18 04:20:18;;;;;;;1.73;0.63;;;31.90;54.10;;;;;;5037213;28;20037;-71
2021/11/18 04:22:47;;;;;;;1.10;0.40;;;31.60;53.70;;;;;;5042994;28;20036;-76
2021/11/18 04:25:17;;;;;;;2.28;1.02;;;31.40;54.30;;;;;;5047343;28;20039;-71
2021/11/18 04:27:44;;;;;;;2.53;0.47;;;31.40;54.80;;;;;;5046081;28;20028;-75
2021/11/18 04:30:15;;;;;;;2.38;0.30;;;31.60;55.60;;;;;;5048889;28;20059;-78
2021/11/18 04:32:44;;;;;;;1.77;0.30;;;32.10;54.20;;;;;;5046793;28;20049;-79
2021/11/18 04:35:13;;;;;;;0.47;0.30;;;32.40;56.00;;;;;;5044226;28;20518;-75
2021/11/18 04:37:40;;;;;;;1.92;0.40;;;32.70;55.20;;;;;;5046227;28;20021;-73
2021/11/18 04:40:10;;;;;;;2.80;0.30;;;32.70;53.70;;;;;;5045083;28;20112;-76
2021/11/18 04:42:40;;;;;;;0.70;0.30;;;32.30;53.60;;;;;;5046394;28;20138;-75
2021/11/18 04:45:09;;;;;;;1.45;0.65;;;32.20;53.30;;;;;;5045921;28;20021;-73
2021/11/18 04:47:36;;;;;;;1.20;0.70;;;32.00;54.80;;;;;;5039639;28;20048;-72
2021/11/18 04:50:04;;;;;;;2.55;0.52;;;32.10;60.70;;;;;;5040556;28;20025;-74
2021/11/18 04:52:32;;;;;;;3.90;0.95;;;32.20;59.80;;;;;;5042992;28;20079;-71
2021/11/18 04:55:00;;;;;;;5.18;0.60;;;32.30;62.50;;;;;;5037655;28;20036;-75
2021/11/18 04:57:28;;;;;;;0.98;0.43;;;32.10;63.00;;;;;;5036944;28;20029;-73
2021/11/18 04:59:59;;;;;;;2.42;0.80;;;32.00;63.80;;;;;;5037989;28;20544;-77
2021/11/18 05:02:26;;;;;;;1.67;0.30;;;31.90;64.80;;;;;;5046683;28;20041;-76
2021/11/18 05:04:54;;;;;;;3.80;0.57;;;31.80;63.80;;;;;;5044974;28;20032;-75
2021/11/18 05:07:21;;;;;;;1.23;0.40;;;31.60;63.80;;;;;;5043599;28;20051;-75
2021/11/18 05:09:49;;;;;;;3.05;0.40;;;31.50;64.50;;;;;;5043079;28;20021;-72
2021/11/18 05:12:17;;;;;;;0.93;0.30;;;31.50;64.70;;;;;;5044288;28;20786;-73
2021/11/18 05:14:45;;;;;;;3.60;0.57;;;31.30;65.10;;;;;;5043386;28;20025;-74
2021/11/18 05:17:12;;;;;;;2.15;0.50;;;31.00;65.40;;;;;;5045763;28;20030;-76
2021/11/18 05:19:39;;;;;;;2.40;0.55;;;30.80;65.90;;;;;;5046126;28;20499;-76
2021/11/18 05:22:07;;;;;;;2.22;0.88;;;30.50;66.50;;;;;;5044136;28;20029;-74
2021/11/18 05:24:34;;;;;;;4.00;0.70;;;30.30;67.30;;;;;;5041537;28;20078;-75
2021/11/18 05:27:02;;;;;;;3.10;0.70;;;30.20;67.00;;;;;;5045888;28;20033;-74
2021/11/18 05:29:30;;;;;;;1.73;0.47;;;29.90;67.60;;;;;;5041009;28;20025;-76
2021/11/18 05:31:57;;;;;;;1.15;0.50;;;29.60;68.70;;;;;;5043784;28;20162;-77
2021/11/18 05:34:25;;;;;;;2.03;0.60;;;29.70;68.90;;;;;;5043624;28;20373;-76
2021/11/18 05:36:52;;;;;;;2.00;0.63;;;30.00;68.80;;;;;;5043817;28;20052;-75
2021/11/18 05:39:19;;;;;;;1.70;0.47;;;30.00;68.60;;;;;;5038897;28;20795;-74
2021/11/18 05:41:47;;;;;;;5.22;0.82;;;29.90;68.50;;;;;;5041469;28;20064;-74
2021/11/18 05:44:14;;;;;;;3.75;0.70;;;29.90;68.70;;;;;;5045288;28;20029;-76
2021/11/18 05:46:42;;;;;;;2.53;0.60;;;29.90;68.70;;;;;;5045727;28;20369;-78
2021/11/18 05:49:09;;;;;;;5.78;0.70;;;29.80;69.70;;;;;;5041583;28;20383;-74
2021/11/18 05:51:37;;;;;;;3.72;0.60;;;29.70;69.50;;;;;;5042988;28;20041;-74
2021/11/18 05:54:08;;;;;;;2.95;1.15;;;29.80;69.40;;;;;;5043953;28;20042;-75
2021/11/18 05:56:37;;;;;;;3.25;0.60;;;29.60;69.70;;;;;;5045058;28;20044;-76
2021/11/18 05:59:05;;;;;;;2.17;0.57;;;29.50;70.20;;;;;;5050811;28;20025;-76
2021/11/18 06:01:33;;;;;;;2.70;0.85;;;29.30;70.30;;;;;;5045977;28;20029;-77
2021/11/18 06:04:01;;;;;;;4.38;0.90;;;29.30;71.00;;;;;;5049711;28;20104;-77
2021/11/18 06:06:30;;;;;;;2.72;0.75;;;29.30;70.40;;;;;;5048012;28;20082;-74
2021/11/18 06:09:06;;;;;;;1.63;0.52;;;29.30;70.30;;;;;;5046159;28;20030;-73
2021/11/18 06:11:37;;;;;;;4.78;0.60;;;29.30;70.10;;;;;;5042941;28;20051;-75
2021/11/18 06:14:05;;;;;;;3.13;0.52;;;29.10;70.60;;;;;;5048197;28;20048;-77
2021/11/18 06:16:35;;;;;;;2.72;0.68;;;29.00;70.90;;;;;;5051319;28;20033;-80
2021/11/18 06:19:03;;;;;;;3.70;0.77;;;29.10;70.80;;;;;;5050961;28;20535;-77
2021/11/18 06:21:33;;;;;;;4.65;0.90;;;28.80;71.10;;;;;;5042964;28;20148;-73
2021/11/18 06:24:01;;;;;;;1.33;0.82;;;28.60;71.50;;;;;;5042871;28;20041;-75
2021/11/18 06:26:28;;;;;;;0.80;0.30;;;28.60;72.00;;;;;;5042421;28;20028;-74
2021/11/18 06:28:58;;;;;;;1.65;0.65;;;28.50;71.60;;;;;;5042440;28;20017;-77
2021/11/18 06:31:26;;;;;;;2.90;0.82;;;28.40;71.90;;;;;;5040735;28;20124;-77
2021/11/18 06:33:54;;;;;;;2.17;0.47;;;28.20;72.40;;;;;;5047623;28;20033;-75
2021/11/18 06:36:22;;;;;;;1.90;0.73;;;28.00;72.90;;;;;;5050459;28;20064;-76
2021/11/18 06:38:51;;;;;;;2.72;0.50;;;28.00;73.20;;;;;;5044824;28;20034;-75
2021/11/18 06:41:21;;;;;;;2.42;0.73;;;27.80;73.60;;;;;;5040369;28;20042;-77
2021/11/18 06:43:50;;;;;;;2.95;0.60;;;27.50;74.10;;;;;;5044824;28;20044;-75
2021/11/18 06:46:18;;;;;;;5.38;0.63;;;27.60;74.20;;;;;;5041208;28;20037;-76
2021/11/18 06:48:46;;;;;;;1.35;0.65;;;27.70;74.20;;;;;;5045080;28;20507;-74
2021/11/18 06:51:18;;;;;;;4.47;0.80;;;27.60;74.20;;;;;;5044069;28;20037;-77
2021/11/18 06:53:46;;;;;;;4.47;1.15;;;27.50;74.80;;;;;;5043226;28;20033;-75
2021/11/18 06:56:14;;;;;;;5.97;1.35;;;27.50;75.00;;;;;;5044910;28;20693;-77
2021/11/18 06:58:41;;;;;;;4.20;1.40;;;27.50;75.30;;;;;;5041327;28;20029;-74
2021/11/18 07:01:09;;;;;;;4.03;0.95;;;27.40;75.60;;;;;;5041433;28;20026;-76
2021/11/18 07:03:39;;;;;;;5.75;0.82;;;27.20;75.80;;;;;;5045503;28;20040;-73
2021/11/18 07:06:12;;;;;;;1.33;0.60;;;27.10;75.80;;;;;;5044024;28;20029;-77
2021/11/18 07:08:40;;;;;;;2.58;0.63;;;27.10;75.70;;;;;;5038987;28;20492;-73
2021/11/18 07:11:08;;;;;;;1.83;1.00;;;27.10;75.90;;;;;;5047704;28;20113;-73
2021/11/18 07:13:36;;;;;;;4.55;0.80;;;26.90;76.30;;;;;;5049951;28;20059;-74
2021/11/18 07:16:05;;;;;;;3.28;0.80;;;26.90;76.70;;;;;;5049388;28;20032;-72
2021/11/18 07:18:33;;;;;;;3.92;0.95;;;26.60;76.90;;;;;;5045480;28;20087;-74
2021/11/18 07:21:01;;;;;;;4.32;0.68;;;26.50;77.50;;;;;;5037062;28;21153;-72
2021/11/18 07:23:30;;;;;;;3.72;0.70;;;26.40;78.00;;;;;;5037059;28;20029;-71
2021/11/18 07:25:59;;;;;;;4.50;1.40;;;26.20;78.40;;;;;;5043962;28;20056;-72
2021/11/18 07:28:28;;;;;;;5.43;0.60;;;26.10;79.10;;;;;;5038932;28;20029;-74
2021/11/18 07:30:56;;;;;;;4.45;1.42;;;26.00;79.60;;;;;;5042232;28;20131;-74
2021/11/18 07:33:24;;;;;;;2.13;0.43;;;25.90;80.10;;;;;;5048853;28;20033;-72
2021/11/18 07:35:53;;;;;;;4.57;1.38;;;25.80;80.50;;;;;;5050138;28;20040;-74
2021/11/18 07:38:27;;;;;;;4.22;1.35;;;25.70;81.20;;;;;;5048574;28;20104;-73
2021/11/18 07:40:55;;;;;;;7.28;0.90;;;25.50;81.20;;;;;;5049303;28;20021;-72
2021/11/18 07:43:28;;;;;;;6.25;1.08;;;25.50;81.90;;;;;;5042574;28;20032;-72
2021/11/18 07:46:00;;;;;;;3.42;0.88;;;25.50;82.20;;;;;;5048642;28;20025;-70
2021/11/18 07:48:28;;;;;;;1.48;0.70;;;25.30;82.80;;;;;;5040383;28;20063;-70
2021/11/18 07:50:57;;;;;;;4.90;1.02;;;25.20;83.60;;;;;;5042373;28;20029;-69
2021/11/18 07:53:26;;;;;;;3.83;1.38;;;24.90;84.40;;;;;;5037960;28;20029;-72
2021/11/18 07:55:53;;;;;;;3.10;0.95;;;24.70;85.10;;;;;;5038783;28;20029;-71
2021/11/18 07:58:21;;;;;;;5.45;0.75;;;24.60;85.80;;;;;;5037322;28;20033;-73
2021/11/18 08:00:50;;;;;;;4.75;0.85;;;24.40;86.70;;;;;;5041991;28;20013;-72
2021/11/18 08:03:20;;;;;;;5.10;0.80;;;24.30;87.00;;;;;;5042302;28;20112;-74
2021/11/18 08:05:48;;;;;;;4.22;0.65;;;24.10;87.90;;;;;;5043758;28;20022;-75
2021/11/18 08:08:16;;;;;;;4.90;1.15;;;24.10;88.50;;;;;;5036281;28;20554;-74
2021/11/18 08:10:43;;;;;;;4.28;1.08;;;24.00;88.90;;;;;;5043793;28;20040;-73
2021/11/18 08:13:11;;;;;;;1.65;0.50;;;24.10;88.90;;;;;;5034058;28;20083;-74
2021/11/18 08:15:38;;;;;;;3.65;0.60;;;24.10;89.20;;;;;;5042538;28;20480;-73
2021/11/18 08:18:06;;;;;;;3.80;0.88;;;24.20;89.30;;;;;;5040566;28;20148;-74
2021/11/18 08:20:34;;;;;;;8.35;0.88;;;24.10;89.60;;;;;;5046716;28;20032;-74
2021/11/18 08:23:02;;;;;;;5.55;0.82;;;24.20;90.10;;;;;;5033852;28;20030;-73
2021/11/18 08:25:32;;;;;;;3.95;1.95;;;24.10;90.10;;;;;;5043539;28;20433;-70
2021/11/18 08:28:01;;;;;;;3.13;1.10;;;24.10;90.30;;;;;;5042380;28;20032;-75
2021/11/18 08:30:31;;;;;;;4.53;1.08;;;23.90;90.50;;;;;;5043807;28;20045;-75
2021/11/18 08:33:02;;;;;;;5.70;1.38;;;24.00;90.70;;;;;;5039618;28;20041;-73
2021/11/18 08:35:34;;;;;;;5.03;1.50;;;23.90;91.00;;;;;;5047394;28;20025;-74
2021/11/18 08:38:08;;;;;;;6.40;0.95;;;23.60;91.20;;;;;;5046863;28;20119;-73
2021/11/18 08:40:37;;;;;;;3.47;0.70;;;23.50;91.40;;;;;;5045155;28;20055;-74
2021/11/18 08:43:05;;;;;;;4.75;1.95;;;23.50;91.80;;;;;;5045943;28;20379;-74
2021/11/18 08:45:34;;;;;;;3.97;0.95;;;23.40;92.10;;;;;;5048882;28;20141;-73
2021/11/18 08:48:05;;;;;;;6.18;1.08;;;23.20;92.30;;;;;;5037898;28;20082;-73
2021/11/18 08:50:33;;;;;;;4.53;0.90;;;23.20;92.40;;;;;;5047067;28;20033;-74
2021/11/18 08:53:01;;;;;;;2.45;0.85;;;23.20;92.70;;;;;;5046012;28;20496;-74
2021/11/18 08:55:34;;;;;;;8.85;1.75;;;23.20;92.80;;;;;;5046520;28;20355;-74
2021/11/18 08:58:02;;;;;;;4.40;1.10;;;23.20;92.60;;;;;;5035476;28;20034;-75
2021/11/18 09:00:40;;;;;;;4.38;1.25;;;23.20;92.90;;;;;;5042554;28;20048;-76
2021/11/18 09:03:09;;;;;;;4.03;1.10;;;23.20;92.70;;;;;;5034884;28;20159;-75
2021/11/18 09:05:37;;;;;;;5.38;2.17;;;23.20;92.60;;;;;;5041088;28;20029;-72
2021/11/18 09:08:05;;;;;;;5.40;0.93;;;23.10;92.90;;;;;;5044953;28;20033;-73
2021/11/18 09:10:35;;;;;;;4.63;1.67;;;23.00;93.00;;;;;;5043449;28;20387;-75
2021/11/18 09:13:04;;;;;;;2.75;1.42;;;23.00;93.30;;;;;;5047286;28;20073;-74
2021/11/18 09:15:32;;;;;;;2.75;0.95;;;23.00;93.30;;;;;;5043489;28;20033;-74
2021/11/18 09:17:59;;;;;;;6.57;1.30;;;23.00;93.40;;;;;;5043737;28;20058;-74
2021/11/18 09:20:29;;;;;;;4.82;1.27;;;22.90;93.50;;;;;;5039759;28;20031;-75
2021/11/18 09:23:00;;;;;;;4.00;0.93;;;22.90;93.70;;;;;;5048566;28;20047;-74
2021/11/18 09:25:35;;;;;;;5.13;1.00;;;22.80;93.90;;;;;;5047047;28;20375;-72
2021/11/18 09:28:05;;;;;;;4.38;0.98;;;22.80;94.10;;;;;;5044189;28;20044;-74
2021/11/18 09:30:37;;;;;;;4.10;0.70;;;22.70;94.20;;;;;;5040730;28;20046;-73
2021/11/18 09:33:07;;;;;;;6.63;1.30;;;22.80;94.30;;;;;;5036220;28;20036;-74
2021/11/18 09:35:49;;;;;;;7.97;1.60;;;22.80;94.50;;;;;;5031970;28;20021;-73
2021/11/18 09:38:19;;;;;;;5.13;1.08;;;22.80;94.50;;;;;;5036050;28;20488;-74
2021/11/18 09:41:03;;;;;;;4.03;0.98;;;22.70;94.80;;;;;;5037821;28;20678;-74
2021/11/18 09:43:54;;;;;;;4.93;0.68;;;22.70;95.00;;;;;;5039455;28;20373;-74
2021/11/18 09:46:48;;;;;;;5.80;1.17;;;22.70;95.40;;;;;;5041288;28;20272;-73
2021/11/18 09:49:49;;;;;;;4.65;0.50;;;22.60;95.40;;;;;;5040903;28;20041;-72
2021/11/18 09:52:22;;;;;;;2.13;0.80;;;22.60;95.50;;;;;;5039412;28;20028;-74
2021/11/18 09:55:15;;;;;;;4.05;0.80;;;22.50;95.70;;;;;;5040601;28;20139;-75
2021/11/18 09:58:13;;;;;;;4.22;0.73;;;22.50;96.20;;;;;;5044008;28;20041;-73
2021/11/18 10:00:51;;;;;;;7.38;0.95;;;22.40;96.30;;;;;;5038459;28;20029;-73
2021/11/18 10:03:55;;;;;;;3.95;0.65;;;22.40;96.30;;;;;;5050405;28;20021;-75
2021/11/18 10:06:30;;;;;;;3.42;2.00;;;22.40;96.60;;;;;;5031130;28;20069;-75
2021/11/18 10:09:09;;;;;;;4.93;1.55;;;22.40;96.80;;;;;;5038851;28;20029;-74
2021/11/18 10:12:14;;;;;;;3.70;0.68;;;22.40;97.00;;;;;;5048472;28;20029;-72
2021/11/18 10:14:55;;;;;;;3.38;1.15;;;22.40;97.00;;;;;;5035340;28;20041;-73
2021/11/18 10:17:36;;;;;;;2.35;0.65;;;22.30;97.30;;;;;;5035551;28;20033;-74
2021/11/18 10:20:14;;;;;;;1.80;0.63;;;22.30;97.40;;;;;;5040747;28;20088;-75
2021/11/18 10:23:13;;;;;;;2.92;0.65;;;22.30;97.50;;;;;;5045570;28;20024;-75
2021/11/18 10:25:55;;;;;;;4.15;0.60;;;22.20;97.80;;;;;;5036321;28;20048;-75
2021/11/18 10:28:22;;;;;;;4.25;1.15;;;22.20;98.00;;;;;;5040733;28;20063;-74
2021/11/18 10:31:14;;;;;;;2.25;0.75;;;22.20;97.90;;;;;;5039871;28;20091;-76
2021/11/18 10:33:56;;;;;;;3.70;0.50;;;22.20;98.00;;;;;;5037980;28;20213;-76
2021/11/18 10:36:44;;;;;;;3.67;0.70;;;22.20;98.20;;;;;;5036899;28;20518;-75
2021/11/18 10:39:40;;;;;;;3.30;0.75;;;22.20;98.30;;;;;;5038565;28;20140;-74
2021/11/18 10:42:13;;;;;;;4.30;1.27;;;22.10;98.40;;;;;;5027968;28;20037;-75
2021/11/18 10:45:08;;;;;;;4.10;1.40;;;22.10;98.50;;;;;;5038771;28;20040;-74
2021/11/18 10:48:02;;;;;;;4.20;1.10;;;22.10;98.60;;;;;;5037712;28;20052;-75
2021/11/18 10:51:08;;;;;;;5.72;1.50;;;22.10;98.80;;;;;;5045895;28;20119;-74
2021/11/18 10:53:49;;;;;;;7.22;2.83;;;22.00;99.00;;;;;;5037701;28;20120;-75
2021/11/18 10:56:29;;;;;;;2.78;1.00;;;22.00;99.20;;;;;;5042332;28;20546;-77
2021/11/18 10:59:11;;;;;;;3.70;0.90;;;21.90;99.30;;;;;;5039627;28;20020;-76
2021/11/18 11:01:44;;;;;;;5.97;2.22;;;21.90;99.60;;;;;;5036892;28;20072;-76
2021/11/18 11:04:39;;;;;;;2.80;1.40;;;21.80;99.70;;;;;;5040414;28;20443;-75
2021/11/18 11:07:07;;;;;;;3.70;0.93;;;21.80;99.90;;;;;;5038275;28;20057;-76
2021/11/18 11:09:41;;;;;;;3.58;1.63;;;21.80;99.90;;;;;;5043359;28;20032;-76
2021/11/18 11:12:26;;;;;;;6.15;1.75;;;21.80;99.90;;;;;;5040934;28;20443;-74
2021/11/18 11:15:06;;;;;;;2.25;1.27;;;21.80;99.90;;;;;;5033696;28;20480;-75
2021/11/18 11:18:02;;;;;;;5.28;1.88;;;21.80;99.90;;;;;;5045077;28;20034;-75
2021/11/18 11:20:45;;;;;;;4.93;1.58;;;21.70;99.90;;;;;;5039384;28;20029;-78
2021/11/18 11:23:23;;;;;;;6.43;1.27;;;21.70;99.90;;;;;;5037861;28;20027;-76
2021/11/18 11:26:24;;;;;;;6.43;1.67;;;21.70;99.90;;;;;;5037534;28;20037;-77
2021/11/18 11:29:03;;;;;;;3.25;1.00;;;21.70;99.90;;;;;;5037268;28;20409;-76
2021/11/18 11:31:49;;;;;;;4.82;0.70;;;21.70;99.90;;;;;;5036801;28;20485;-76
2021/11/18 11:34:39;;;;;;;3.20;0.95;;;21.70;99.90;;;;;;5034415;28;20033;-75
2021/11/18 11:37:15;;;;;;;2.38;0.98;;;21.70;99.90;;;;;;5040157;28;20029;-75
2021/11/18 11:39:56;;;;;;;6.07;1.08;;;21.70;99.90;;;;;;5036251;28;20744;-73
2021/11/18 11:43:05;;;;;;;3.13;0.80;;;21.70;99.90;;;;;;5040878;28;20025;-75
2021/11/18 11:45:52;;;;;;;5.13;1.70;;;21.70;99.90;;;;;;5042050;28;20026;-75
2021/11/18 11:48:35;;;;;;;3.53;0.90;;;21.70;99.90;;;;;;5042300;28;20037;-73
2021/11/18 11:51:06;;;;;;;4.25;1.20;;;21.60;99.90;;;;;;5044339;28;20047;-76
2021/11/18 11:53:56;;;;;;;9.05;1.92;;;21.60;99.90;;;;;;5037385;28;20461;-76
2021/11/18 11:56:36;;;;;;;6.53;1.50;;;21.60;99.90;;;;;;5034932;28;20090;-74
2021/11/18 11:59:38;;;;;;;5.15;1.17;;;21.60;99.90;;;;;;5044282;28;20098;-75
2021/11/18 12:02:08;;;;;;;4.45;0.90;;;21.70;99.90;;;;;;5042233;28;20044;-73
2021/11/18 12:05:03;;;;;;;4.75;1.33;;;21.60;99.90;;;;;;5040277;28;20566;-72
2021/11/18 12:07:42;;;;;;;3.25;1.60;;;21.70;99.90;;;;;;5033078;28;20040;-73
2021/11/18 12:10:30;;;;;;;2.90;1.70;;;21.70;99.90;;;;;;5038333;28;20025;-73
2021/11/18 12:13:23;;;;;;;2.33;0.70;;;21.70;99.90;;;;;;5036135;28;20036;-72
2021/11/18 12:15:59;;;;;;;4.80;1.92;;;21.70;99.90;;;;;;5038449;28;20037;-73
2021/11/18 12:18:41;;;;;;;4.13;1.15;;;21.60;99.90;;;;;;5039171;28;20021;-72
2021/11/18 12:21:10;;;;;;;4.55;1.42;;;21.70;99.90;;;;;;5038086;28;20100;-74
2021/11/18 12:24:10;;;;;;;3.75;1.45;;;21.60;99.90;;;;;;5042192;28;20029;-75
2021/11/18 12:26:43;;;;;;;2.78;0.85;;;21.60;99.90;;;;;;5035424;28;20029;-76
2021/11/18 12:29:29;;;;;;;9.07;1.60;;;21.60;99.90;;;;;;5047277;28;20037;-74
2021/11/18 12:32:09;;;;;;;2.97;1.33;;;21.60;99.90;;;;;;5042330;28;20043;-75
2021/11/18 12:35:04;;;;;;;4.55;1.15;;;21.60;99.90;;;;;;5040147;28;20037;-73
2021/11/18 12:37:51;;;;;;;6.10;1.52;;;21.50;99.90;;;;;;5037391;28;20064;-76
2021/11/18 12:40:55;;;;;;;5.22;1.17;;;21.50;99.90;;;;;;5040063;28;20024;-75
2021/11/18 12:43:46;;;;;;;2.83;0.90;;;21.50;99.90;;;;;;5036965;28;20082;-74
2021/11/18 12:46:33;;;;;;;5.15;1.05;;;21.40;99.90;;;;;;5033233;28;20067;-74
2021/11/18 12:49:12;;;;;;;2.55;1.00;;;21.40;99.90;;;;;;5041248;28;20025;-74
2021/11/18 12:51:45;;;;;;;4.25;0.85;;;21.30;99.90;;;;;;5039613;28;20036;-73
2021/11/18 12:54:17;;;;;;;6.50;1.45;;;21.30;99.90;;;;;;5044679;28;22169;-75
2021/11/18 12:56:56;;;;;;;7.43;1.20;;;21.20;99.90;;;;;;5032303;28;20021;-75
2021/11/18 12:59:47;;;;;;;7.32;1.98;;;21.30;99.90;;;;;;5032132;28;20155;-74
2021/11/18 13:02:27;;;;;;;5.90;1.33;;;21.20;99.90;;;;;;5047065;28;20025;-75
2021/11/18 13:05:21;;;;;;;4.05;1.20;;;21.20;99.90;;;;;;5040489;28;20471;-74
2021/11/18 13:07:51;;;;;;;3.53;0.90;;;21.20;99.90;;;;;;5046515;28;20057;-75
2021/11/18 13:10:22;;;;;;;4.63;1.17;;;21.20;99.90;;;;;;5032444;28;20029;-75
2021/11/18 13:13:04;;;;;;;3.33;2.03;;;21.20;99.90;;;;;;5038012;28;20124;-73
2021/11/18 13:15:57;;;;;;;2.35;0.90;;;21.20;99.90;;;;;;5038140;28;20038;-74
2021/11/18 13:18:30;;;;;;;4.70;1.20;;;21.10;99.90;;;;;;5043082;28;20037;-74